Time;durP1;ratioP1;P1;durP2;ratioP2;P2;SDS_P1;SDS_P2;PMS_P1;PMS_P2;Temp;Humidity;BMP_temperature;BMP_pressure;BME280_temperature;BME280_humidity;BME280_pressure;Samples;Min_cycle;Max_cycle;Signal;HPM_P1;HPM_P2
2023/11/17 00:01:45;;;;;;;14.33;3.00;;;20.30;59.10;;;;;;4996907;28;20238;-72
2023/11/17 00:04:14;;;;;;;11.67;2.63;;;20.30;59.20;;;;;;4992391;28;20185;-72
2023/11/17 00:06:42;;;;;;;8.90;2.40;;;20.70;58.60;;;;;;4993210;28;20186;-73
2023/11/17 00:09:10;;;;;;;16.53;2.60;;;20.50;58.20;;;;;;4985578;28;20190;-74
2023/11/17 00:11:38;;;;;;;10.87;2.10;;;20.60;58.90;;;;;;4988184;28;20537;-72
2023/11/17 00:14:06;;;;;;;9.60;2.60;;;20.00;59.20;;;;;;4980547;28;20193;-70
2023/11/17 00:16:33;;;;;;;10.40;2.57;;;20.20;59.80;;;;;;4966991;28;20336;-72
2023/11/17 00:19:01;;;;;;;10.93;2.17;;;20.10;59.80;;;;;;4984221;28;20636;-74
2023/11/17 00:21:28;;;;;;;9.73;2.47;;;20.80;59.00;;;;;;4993091;28;20174;-74
2023/11/17 00:23:56;;;;;;;12.13;2.60;;;20.60;58.40;;;;;;4989634;28;20194;-71
2023/11/17 00:26:25;;;;;;;9.13;2.10;;;20.80;57.10;;;;;;4985563;28;20193;-73
2023/11/17 00:28:53;;;;;;;9.20;2.23;;;21.00;56.90;;;;;;4987370;28;20672;-70
2023/11/17 00:31:21;;;;;;;9.67;2.60;;;21.00;56.00;;;;;;4991976;28;20190;-71
2023/11/17 00:33:49;;;;;;;8.87;2.80;;;20.90;56.30;;;;;;4990796;28;20183;-71
2023/11/17 00:36:16;;;;;;;9.03;2.03;;;20.80;56.50;;;;;;4995566;28;20213;-71
2023/11/17 00:38:44;;;;;;;7.93;2.07;;;20.90;55.70;;;;;;4989891;28;20655;-74
2023/11/17 00:41:12;;;;;;;10.20;1.80;;;21.30;54.50;;;;;;4979808;28;20178;-71
2023/11/17 00:43:40;;;;;;;8.37;2.23;;;20.90;56.00;;;;;;4987081;28;20274;-74
2023/11/17 00:46:07;;;;;;;9.77;2.00;;;20.80;56.40;;;;;;4992475;28;20186;-72
2023/11/17 00:48:34;;;;;;;6.13;1.90;;;21.10;55.80;;;;;;4996209;28;20181;-74
2023/11/17 00:51:03;;;;;;;11.00;2.10;;;21.50;54.00;;;;;;4978326;28;20550;-73
2023/11/17 00:53:30;;;;;;;13.80;2.53;;;21.80;53.20;;;;;;4996138;28;20225;-71
2023/11/17 00:55:58;;;;;;;11.57;1.87;;;21.70;53.70;;;;;;4992750;28;20222;-72
2023/11/17 00:58:29;;;;;;;6.30;1.97;;;21.80;52.40;;;;;;4995917;28;20178;-73
2023/11/17 01:01:00;;;;;;;6.60;2.00;;;22.30;52.00;;;;;;4995035;28;20178;-72
2023/11/17 01:03:28;;;;;;;6.97;1.83;;;22.10;51.60;;;;;;4995878;28;20537;-76
2023/11/17 01:05:58;;;;;;;8.93;2.10;;;21.80;51.60;;;;;;4994773;28;20257;-72
2023/11/17 01:08:26;;;;;;;6.80;2.00;;;22.40;51.30;;;;;;4995921;28;20186;-72
2023/11/17 01:10:53;;;;;;;6.60;1.70;;;22.30;50.90;;;;;;4995247;28;20586;-73
2023/11/17 01:13:22;;;;;;;13.40;2.37;;;22.20;50.60;;;;;;4995607;28;20652;-72
2023/11/17 01:15:49;;;;;;;11.07;1.90;;;22.00;51.00;;;;;;4989563;28;20587;-72
2023/11/17 01:18:16;;;;;;;8.50;1.83;;;21.50;52.30;;;;;;4986254;28;20266;-72
2023/11/17 01:20:43;;;;;;;11.03;2.03;;;21.50;52.80;;;;;;4992617;28;20229;-72
2023/11/17 01:23:13;;;;;;;6.87;1.63;;;21.50;51.30;;;;;;4986362;28;20268;-71
2023/11/17 01:25:41;;;;;;;4.77;1.90;;;21.70;51.60;;;;;;4993502;28;20185;-72
2023/11/17 01:28:09;;;;;;;8.87;2.07;;;21.80;52.20;;;;;;4993124;28;20178;-71
2023/11/17 01:30:36;;;;;;;5.53;1.70;;;22.30;50.10;;;;;;4994381;28;20216;-74
2023/11/17 01:33:03;;;;;;;6.63;1.40;;;22.40;50.20;;;;;;4995095;28;20220;-72
2023/11/17 01:35:31;;;;;;;8.53;2.20;;;22.30;48.80;;;;;;4993410;28;20313;-72
2023/11/17 01:37:58;;;;;;;6.97;1.57;;;22.30;48.60;;;;;;4990873;28;20734;-72
2023/11/17 01:40:27;;;;;;;5.57;1.90;;;22.80;48.70;;;;;;4992954;28;20636;-71
2023/11/17 01:42:54;;;;;;;6.63;1.80;;;22.60;48.70;;;;;;4995210;28;20177;-72
2023/11/17 01:45:22;;;;;;;9.40;1.87;;;22.70;48.90;;;;;;4993713;28;20178;-71
2023/11/17 01:47:50;;;;;;;5.83;1.80;;;23.00;48.10;;;;;;4995045;28;20190;-71
2023/11/17 01:50:17;;;;;;;6.10;1.53;;;22.80;47.80;;;;;;4995548;28;20536;-71
2023/11/17 01:52:46;;;;;;;9.87;1.73;;;22.80;47.30;;;;;;4995239;28;20723;-73
2023/11/17 01:55:15;;;;;;;9.03;1.90;;;22.30;47.20;;;;;;4994742;28;20237;-72
2023/11/17 01:57:44;;;;;;;7.33;1.50;;;22.60;48.10;;;;;;4995159;28;20213;-72
2023/11/17 02:00:14;;;;;;;8.97;1.70;;;22.80;47.40;;;;;;4995259;28;20178;-73
2023/11/17 02:02:53;;;;;;;4.70;1.53;;;23.00;47.50;;;;;;4995244;28;20626;-72
2023/11/17 02:05:24;;;;;;;5.30;1.50;;;23.00;47.20;;;;;;4977623;28;20308;-72
2023/11/17 02:07:57;;;;;;;8.80;1.70;;;22.80;47.20;;;;;;4995260;28;20252;-72
2023/11/17 02:10:55;;;;;;;4.67;1.90;;;22.70;48.00;;;;;;4994470;28;20643;-73
2023/11/17 02:13:42;;;;;;;5.97;2.10;;;22.40;47.40;;;;;;4993875;28;20174;-70
2023/11/17 02:16:17;;;;;;;9.93;1.83;;;22.60;46.70;;;;;;4992073;28;20217;-74
2023/11/17 02:18:49;;;;;;;5.77;1.93;;;23.30;47.30;;;;;;4994619;28;20185;-72
2023/11/17 02:21:20;;;;;;;8.43;2.17;;;23.60;46.80;;;;;;4994584;28;20186;-72
2023/11/17 02:23:51;;;;;;;5.50;1.50;;;23.60;47.00;;;;;;4993973;28;20224;-71
2023/11/17 02:26:42;;;;;;;7.50;1.93;;;23.50;46.60;;;;;;4993513;28;20182;-71
2023/11/17 02:29:28;;;;;;;4.60;1.67;;;23.00;47.50;;;;;;4994275;28;20170;-71
2023/11/17 02:32:00;;;;;;;8.67;1.60;;;23.20;46.50;;;;;;4981384;28;20182;-72
2023/11/17 02:34:28;;;;;;;5.07;1.87;;;23.20;46.50;;;;;;4994751;28;20197;-74
2023/11/17 02:36:58;;;;;;;6.80;1.70;;;23.40;46.60;;;;;;4994214;28;20210;-73
2023/11/17 02:39:26;;;;;;;4.80;1.70;;;23.40;46.40;;;;;;4994647;28;20193;-71
2023/11/17 02:41:57;;;;;;;5.30;1.50;;;23.70;45.90;;;;;;4994336;28;20253;-72
2023/11/17 02:44:33;;;;;;;6.93;1.83;;;23.80;44.90;;;;;;4994332;28;20177;-72
2023/11/17 02:47:04;;;;;;;11.87;1.97;;;23.80;45.60;;;;;;4994239;28;20193;-71
2023/11/17 02:49:40;;;;;;;7.17;1.70;;;23.80;44.10;;;;;;4994278;28;20217;-70
2023/11/17 02:52:15;;;;;;;5.97;1.70;;;23.80;44.40;;;;;;4994036;28;20208;-71
2023/11/17 02:54:42;;;;;;;3.93;1.40;;;23.90;43.90;;;;;;4993794;28;20196;-73
2023/11/17 02:57:12;;;;;;;6.43;1.77;;;24.00;44.10;;;;;;4992807;28;20222;-73
2023/11/17 02:59:40;;;;;;;5.17;1.70;;;24.30;44.40;;;;;;4993988;28;20235;-77
2023/11/17 03:02:09;;;;;;;7.17;1.60;;;24.20;43.20;;;;;;4993865;28;20186;-74
2023/11/17 03:04:37;;;;;;;5.97;1.53;;;24.50;43.10;;;;;;4993592;28;20312;-74
2023/11/17 03:07:04;;;;;;;4.77;1.40;;;24.70;42.60;;;;;;4976136;28;20186;-72
2023/11/17 03:09:32;;;;;;;8.33;1.80;;;24.90;41.80;;;;;;4993390;28;20257;-75
2023/11/17 03:12:00;;;;;;;5.53;1.50;;;25.00;42.00;;;;;;4993475;28;20269;-74
2023/11/17 03:14:29;;;;;;;7.30;1.47;;;25.20;41.20;;;;;;4993575;28;20170;-69
2023/11/17 03:16:58;;;;;;;6.47;1.70;;;24.80;40.90;;;;;;4993077;28;20234;-72
2023/11/17 03:19:30;;;;;;;6.80;1.60;;;24.80;42.10;;;;;;4993372;28;20271;-71
2023/11/17 03:21:58;;;;;;;5.43;1.20;;;24.80;43.00;;;;;;4993206;28;20181;-70
2023/11/17 03:24:27;;;;;;;6.47;1.77;;;25.20;43.20;;;;;;4993193;28;20560;-73
2023/11/17 03:26:56;;;;;;;10.00;1.43;;;25.30;42.80;;;;;;4992662;28;20174;-73
2023/11/17 03:29:25;;;;;;;5.20;1.40;;;25.50;43.00;;;;;;4993141;28;20264;-74
2023/11/17 03:31:54;;;;;;;7.70;1.90;;;25.40;42.60;;;;;;4993162;28;20180;-72
2023/11/17 03:34:23;;;;;;;5.23;1.50;;;25.30;42.30;;;;;;4993034;28;20194;-71
2023/11/17 03:37:00;;;;;;;7.13;1.60;;;25.10;42.10;;;;;;4992696;28;20221;-73
2023/11/17 03:39:28;;;;;;;6.23;1.10;;;25.20;42.80;;;;;;4992785;28;20200;-73
2023/11/17 03:41:57;;;;;;;7.30;1.97;;;25.20;44.00;;;;;;4992696;28;20190;-72
2023/11/17 03:44:24;;;;;;;6.03;1.50;;;24.90;45.50;;;;;;4993109;28;20186;-71
2023/11/17 03:46:53;;;;;;;5.10;1.60;;;25.00;44.70;;;;;;4992454;28;20528;-70
2023/11/17 03:49:21;;;;;;;7.40;1.50;;;24.70;44.60;;;;;;4992923;28;20558;-71
2023/11/17 03:51:51;;;;;;;7.00;1.80;;;24.60;46.10;;;;;;4992741;28;20213;-71
2023/11/17 03:54:21;;;;;;;5.30;1.87;;;25.00;46.70;;;;;;4992856;28;20220;-69
2023/11/17 03:56:53;;;;;;;8.43;1.60;;;24.90;45.20;;;;;;4992088;28;20240;-73
2023/11/17 03:59:21;;;;;;;7.27;1.73;;;25.20;45.40;;;;;;4992429;28;20253;-72
2023/11/17 04:01:50;;;;;;;6.63;1.47;;;25.70;45.60;;;;;;4992353;28;20185;-71
2023/11/17 04:04:18;;;;;;;6.17;1.70;;;25.70;44.60;;;;;;4992078;28;20241;-73
2023/11/17 04:06:51;;;;;;;5.67;1.80;;;25.70;44.20;;;;;;4991681;28;20186;-73
2023/11/17 04:09:24;;;;;;;7.23;1.53;;;26.50;42.70;;;;;;4980827;28;20670;-74
2023/11/17 04:11:53;;;;;;;7.47;1.97;;;26.40;42.80;;;;;;4996094;28;20304;-74
2023/11/17 04:14:24;;;;;;;7.27;1.47;;;26.10;43.50;;;;;;4995701;28;20276;-77
2023/11/17 04:16:52;;;;;;;6.77;1.83;;;26.00;43.20;;;;;;4979158;28;20230;-71
2023/11/17 04:19:19;;;;;;;5.07;1.43;;;26.00;44.60;;;;;;4996683;28;20196;-76
2023/11/17 04:21:47;;;;;;;5.77;1.50;;;26.10;44.70;;;;;;4996549;28;20178;-72
2023/11/17 04:24:16;;;;;;;11.10;1.77;;;25.60;45.20;;;;;;4996496;28;20193;-75
2023/11/17 04:26:44;;;;;;;7.77;1.77;;;25.30;46.20;;;;;;4995275;28;20694;-76
2023/11/17 04:29:11;;;;;;;10.63;2.40;;;25.30;46.50;;;;;;4996418;28;20182;-73
2023/11/17 04:31:39;;;;;;;8.70;1.93;;;25.30;47.40;;;;;;4996494;28;20260;-76
2023/11/17 04:34:06;;;;;;;7.37;2.00;;;25.70;47.80;;;;;;4991698;28;20190;-71
2023/11/17 04:36:33;;;;;;;10.33;2.43;;;25.20;48.10;;;;;;4994592;28;20216;-75
2023/11/17 04:39:01;;;;;;;10.33;1.80;;;25.10;49.50;;;;;;4984615;28;20186;-74
2023/11/17 04:41:31;;;;;;;8.67;2.23;;;25.80;49.50;;;;;;4987485;28;20256;-76
2023/11/17 04:43:58;;;;;;;11.70;2.30;;;26.10;49.30;;;;;;4994169;28;20192;-74
2023/11/17 04:46:26;;;;;;;9.30;1.70;;;25.70;49.60;;;;;;5000143;28;20636;-75
2023/11/17 04:48:53;;;;;;;7.47;1.50;;;25.30;49.00;;;;;;4995459;28;20197;-75
2023/11/17 04:51:20;;;;;;;4.93;1.57;;;26.20;47.60;;;;;;4990918;28;20653;-74
2023/11/17 04:53:48;;;;;;;7.20;1.67;;;26.30;48.80;;;;;;4960599;28;20586;-73
2023/11/17 04:56:17;;;;;;;10.90;2.07;;;25.80;50.10;;;;;;4994569;28;20236;-74
2023/11/17 04:58:45;;;;;;;9.90;1.70;;;24.30;53.10;;;;;;4988549;28;20269;-74
2023/11/17 05:01:16;;;;;;;9.20;1.90;;;23.30;56.80;;;;;;4985932;28;20206;-76
2023/11/17 05:03:43;;;;;;;5.30;1.47;;;22.90;58.20;;;;;;4994107;28;20667;-77
2023/11/17 05:06:10;;;;;;;4.90;1.20;;;23.20;56.40;;;;;;4996544;28;20186;-73
2023/11/17 05:08:38;;;;;;;4.43;1.17;;;23.30;54.70;;;;;;4994128;28;20265;-77
2023/11/17 05:11:09;;;;;;;6.20;1.17;;;23.40;53.90;;;;;;4994158;28;20189;-74
2023/11/17 05:13:36;;;;;;;4.63;1.20;;;23.60;53.80;;;;;;4990085;28;20704;-75
2023/11/17 05:16:05;;;;;;;3.70;0.80;;;23.60;52.80;;;;;;4985245;28;20223;-72
2023/11/17 05:18:33;;;;;;;2.67;0.80;;;22.70;52.70;;;;;;4990815;28;20196;-75
2023/11/17 05:21:00;;;;;;;4.93;0.90;;;22.30;51.70;;;;;;5003872;28;20269;-75
2023/11/17 05:23:27;;;;;;;2.33;0.70;;;22.30;52.30;;;;;;4980660;28;20178;-74
2023/11/17 05:25:56;;;;;;;2.13;0.70;;;22.40;53.60;;;;;;4994345;28;20189;-74
2023/11/17 05:28:24;;;;;;;6.63;1.10;;;23.40;51.10;;;;;;4978237;28;20663;-73
2023/11/17 05:30:52;;;;;;;1.57;0.70;;;24.10;49.60;;;;;;4994319;28;20190;-73
2023/11/17 05:33:21;;;;;;;4.50;0.83;;;24.80;49.20;;;;;;4992608;28;20190;-75
2023/11/17 05:35:49;;;;;;;4.20;1.00;;;25.50;48.70;;;;;;4993086;28;20690;-75
2023/11/17 05:38:16;;;;;;;3.73;1.13;;;24.90;49.70;;;;;;4995180;28;20578;-72
2023/11/17 05:40:44;;;;;;;3.07;0.87;;;24.00;52.10;;;;;;4994812;28;20174;-72
2023/11/17 05:43:12;;;;;;;3.53;0.87;;;23.50;52.70;;;;;;4994345;28;20632;-73
2023/11/17 05:45:39;;;;;;;3.13;0.87;;;22.80;52.60;;;;;;4993641;28;20312;-72
2023/11/17 05:48:09;;;;;;;1.90;0.63;;;22.70;53.30;;;;;;4999828;28;20185;-74
2023/11/17 05:50:37;;;;;;;2.80;0.90;;;22.70;53.50;;;;;;4995030;28;20340;-73
2023/11/17 05:53:04;;;;;;;3.03;0.80;;;22.30;55.60;;;;;;4978906;28;20201;-72
2023/11/17 05:55:32;;;;;;;3.00;0.80;;;22.10;56.20;;;;;;4985765;28;20646;-72
2023/11/17 05:58:00;;;;;;;3.90;1.00;;;22.40;54.70;;;;;;4983308;28;20218;-73
2023/11/17 06:00:27;;;;;;;2.13;0.80;;;22.70;53.30;;;;;;4980982;28;20186;-73
2023/11/17 06:02:54;;;;;;;2.40;0.80;;;23.50;52.10;;;;;;4992836;28;20185;-73
2023/11/17 06:05:22;;;;;;;3.00;1.17;;;24.10;51.80;;;;;;4991469;28;20174;-74
2023/11/17 06:07:50;;;;;;;4.27;1.10;;;24.70;50.70;;;;;;4992269;28;20206;-73
2023/11/17 06:10:20;;;;;;;3.93;1.03;;;24.10;52.40;;;;;;4974668;28;20186;-77
2023/11/17 06:12:48;;;;;;;5.43;1.20;;;24.00;53.50;;;;;;4977281;28;20173;-74
2023/11/17 06:15:20;;;;;;;3.23;1.30;;;24.50;52.00;;;;;;4991515;28;22166;-74
2023/11/17 06:17:48;;;;;;;2.10;0.80;;;25.10;49.60;;;;;;4990727;28;20217;-73
2023/11/17 06:20:16;;;;;;;4.30;1.23;;;25.10;49.40;;;;;;4992951;28;20654;-74
2023/11/17 06:22:43;;;;;;;5.73;1.33;;;24.40;51.00;;;;;;4993837;28;20185;-74
2023/11/17 06:25:11;;;;;;;4.57;1.50;;;24.80;51.50;;;;;;4994159;28;20541;-73
2023/11/17 06:27:38;;;;;;;6.20;1.40;;;25.20;51.10;;;;;;4991672;28;20190;-71
2023/11/17 06:30:06;;;;;;;6.57;1.53;;;25.00;52.60;;;;;;4994048;28;20248;-75
2023/11/17 06:32:33;;;;;;;5.77;1.20;;;24.30;55.70;;;;;;4994260;28;20182;-74
2023/11/17 06:35:01;;;;;;;5.00;1.27;;;24.60;54.50;;;;;;4992965;28;20182;-74
2023/11/17 06:37:28;;;;;;;3.53;1.10;;;25.50;51.80;;;;;;4993070;28;20216;-74
2023/11/17 06:39:55;;;;;;;3.17;0.80;;;26.00;49.90;;;;;;4994201;28;20177;-72
2023/11/17 06:42:23;;;;;;;4.83;1.40;;;25.50;50.00;;;;;;4993817;28;20543;-69
2023/11/17 06:44:51;;;;;;;4.10;1.20;;;25.30;51.00;;;;;;4993540;28;20541;-72
2023/11/17 06:47:18;;;;;;;3.27;1.00;;;25.70;50.60;;;;;;4992202;28;20182;-73
2023/11/17 06:49:45;;;;;;;4.40;1.40;;;25.10;50.90;;;;;;4974911;28;20178;-71
2023/11/17 06:52:13;;;;;;;6.80;1.50;;;25.20;52.60;;;;;;4993669;28;20249;-73
2023/11/17 06:54:40;;;;;;;3.50;1.27;;;25.30;52.00;;;;;;4972204;28;20560;-71
2023/11/17 06:57:08;;;;;;;4.70;1.10;;;24.90;54.30;;;;;;4989062;28;20210;-74
2023/11/17 06:59:35;;;;;;;3.70;1.13;;;23.80;56.50;;;;;;4990292;28;20174;-74
2023/11/17 07:02:03;;;;;;;3.93;1.17;;;24.40;56.20;;;;;;4990410;28;20645;-73
2023/11/17 07:04:30;;;;;;;8.97;1.47;;;24.80;54.40;;;;;;4981504;28;20179;-71
2023/11/17 07:06:59;;;;;;;7.20;1.33;;;25.30;53.90;;;;;;4988079;28;20186;-74
2023/11/17 07:09:30;;;;;;;3.57;1.27;;;24.70;53.90;;;;;;4991459;28;20344;-75
2023/11/17 07:12:02;;;;;;;6.83;1.73;;;23.90;55.00;;;;;;4992919;28;20178;-74
2023/11/17 07:14:33;;;;;;;5.07;1.27;;;23.30;57.60;;;;;;4992810;28;20179;-74
2023/11/17 07:17:04;;;;;;;4.47;1.10;;;23.30;57.20;;;;;;4993716;28;20317;-74
2023/11/17 07:19:35;;;;;;;4.60;1.07;;;22.80;58.20;;;;;;4993730;28;20171;-72
2023/11/17 07:22:02;;;;;;;5.27;1.30;;;22.90;57.20;;;;;;4990174;28;20178;-73
2023/11/17 07:24:33;;;;;;;8.50;1.50;;;22.00;59.10;;;;;;4992804;28;20556;-72
2023/11/17 07:27:01;;;;;;;4.20;1.07;;;21.70;61.00;;;;;;4992472;28;20268;-73
2023/11/17 07:29:32;;;;;;;4.63;1.20;;;21.40;61.50;;;;;;4993662;28;20186;-73
2023/11/17 07:31:59;;;;;;;4.93;1.10;;;21.40;61.40;;;;;;4992938;28;20201;-72
2023/11/17 07:34:26;;;;;;;7.90;1.60;;;21.30;62.10;;;;;;4976113;28;20198;-72
2023/11/17 07:36:54;;;;;;;8.43;1.57;;;21.20;62.10;;;;;;4989686;28;20221;-73
2023/11/17 07:39:23;;;;;;;3.63;1.50;;;21.10;62.30;;;;;;4991303;28;20181;-72
2023/11/17 07:41:50;;;;;;;5.63;1.30;;;21.10;62.80;;;;;;4983696;28;20186;-72
2023/11/17 07:44:18;;;;;;;7.27;1.50;;;20.80;62.90;;;;;;4992072;28;20189;-72
2023/11/17 07:46:46;;;;;;;3.80;1.20;;;20.60;63.60;;;;;;4996786;28;20181;-73
2023/11/17 07:49:14;;;;;;;5.93;1.40;;;20.50;63.70;;;;;;4998810;28;20228;-73
2023/11/17 07:51:42;;;;;;;7.77;1.50;;;20.30;63.90;;;;;;4997437;28;20203;-74
2023/11/17 07:54:11;;;;;;;7.50;1.40;;;20.30;64.10;;;;;;4997387;28;20296;-73
2023/11/17 07:56:40;;;;;;;5.43;1.83;;;20.50;63.80;;;;;;4985856;28;20216;-74
2023/11/17 07:59:10;;;;;;;8.23;1.97;;;20.70;63.60;;;;;;4987338;28;20208;-74
2023/11/17 08:01:39;;;;;;;7.90;1.87;;;20.50;64.80;;;;;;4991466;28;20196;-73
2023/11/17 08:04:10;;;;;;;6.37;1.47;;;20.60;64.30;;;;;;4974747;28;20200;-72
2023/11/17 08:06:39;;;;;;;11.07;2.70;;;20.30;64.70;;;;;;4986805;28;22172;-73
2023/11/17 08:09:09;;;;;;;6.90;2.03;;;20.30;65.30;;;;;;4989503;28;20658;-74
2023/11/17 08:11:37;;;;;;;7.43;1.77;;;20.20;65.50;;;;;;4992830;28;20225;-73
2023/11/17 08:14:05;;;;;;;7.07;1.90;;;20.00;66.10;;;;;;4990426;28;20591;-73
2023/11/17 08:16:33;;;;;;;4.10;1.20;;;20.10;65.80;;;;;;4987632;28;20226;-73
2023/11/17 08:19:03;;;;;;;6.40;1.53;;;20.00;66.20;;;;;;4984460;28;20633;-73
2023/11/17 08:21:33;;;;;;;6.37;1.77;;;20.00;66.70;;;;;;4989360;28;20212;-72
2023/11/17 08:24:01;;;;;;;5.07;1.30;;;20.00;67.30;;;;;;4988485;28;20248;-72
2023/11/17 08:26:35;;;;;;;6.17;1.20;;;20.00;67.20;;;;;;4992049;28;20192;-73
2023/11/17 08:29:03;;;;;;;5.40;1.20;;;19.90;67.40;;;;;;4993155;28;20235;-74
2023/11/17 08:31:32;;;;;;;5.17;1.30;;;19.80;68.50;;;;;;4993186;28;20181;-74
2023/11/17 08:34:00;;;;;;;3.77;1.17;;;19.90;68.70;;;;;;4988275;28;20586;-74
2023/11/17 08:36:28;;;;;;;9.13;1.90;;;19.80;68.30;;;;;;4995303;28;20216;-74
2023/11/17 08:38:59;;;;;;;6.80;1.50;;;19.80;68.40;;;;;;4991888;28;20644;-75
2023/11/17 08:41:26;;;;;;;7.80;1.70;;;19.50;69.40;;;;;;4992593;28;20244;-75
2023/11/17 08:43:56;;;;;;;6.13;1.63;;;19.50;69.90;;;;;;4993244;28;20599;-75
2023/11/17 08:46:26;;;;;;;11.43;1.90;;;19.30;71.20;;;;;;4990978;28;20556;-73
2023/11/17 08:48:53;;;;;;;7.00;2.23;;;19.30;72.70;;;;;;4989830;28;20201;-73
2023/11/17 08:51:21;;;;;;;6.93;1.60;;;19.20;75.50;;;;;;4990909;28;20186;-73
2023/11/17 08:53:49;;;;;;;8.57;1.80;;;18.90;76.70;;;;;;4992415;28;20186;-73
2023/11/17 08:56:17;;;;;;;10.03;2.10;;;18.60;79.00;;;;;;4993833;28;20190;-72
2023/11/17 08:58:44;;;;;;;7.37;1.40;;;18.30;80.50;;;;;;4996443;28;20636;-73
2023/11/17 09:01:12;;;;;;;6.00;2.20;;;18.30;81.50;;;;;;4995683;28;20228;-73
2023/11/17 09:03:39;;;;;;;7.67;2.17;;;18.30;81.90;;;;;;4996234;28;20544;-73
2023/11/17 09:06:08;;;;;;;8.30;1.93;;;18.20;82.20;;;;;;4994746;28;20197;-73
2023/11/17 09:08:35;;;;;;;11.73;2.27;;;18.20;82.60;;;;;;4995149;28;20243;-72
2023/11/17 09:11:05;;;;;;;12.70;2.33;;;18.20;83.20;;;;;;4995445;28;20251;-73
2023/11/17 09:13:32;;;;;;;8.67;2.30;;;18.20;82.70;;;;;;4993980;28;20644;-73
2023/11/17 09:16:00;;;;;;;6.20;1.40;;;18.10;83.50;;;;;;4986470;28;20222;-72
2023/11/17 09:18:28;;;;;;;10.40;1.60;;;18.20;83.70;;;;;;4995825;28;20271;-71
2023/11/17 09:20:57;;;;;;;8.17;1.73;;;18.20;83.80;;;;;;5003809;28;20182;-72
2023/11/17 09:23:25;;;;;;;8.03;1.60;;;18.20;84.30;;;;;;4995303;28;20201;-72
2023/11/17 09:25:52;;;;;;;13.20;2.33;;;18.20;84.70;;;;;;4995741;28;20216;-72
2023/11/17 09:28:19;;;;;;;11.60;1.80;;;18.20;85.10;;;;;;4995660;28;20178;-73
2023/11/17 09:30:47;;;;;;;8.60;1.80;;;18.20;85.50;;;;;;4986105;28;20182;-72
2023/11/17 09:33:14;;;;;;;9.23;1.90;;;18.20;85.50;;;;;;4993925;28;20186;-72
2023/11/17 09:35:41;;;;;;;7.93;2.10;;;18.20;85.60;;;;;;4992962;28;20190;-71
2023/11/17 09:38:11;;;;;;;8.00;1.80;;;18.20;85.70;;;;;;4994954;28;20210;-72
2023/11/17 09:40:41;;;;;;;8.50;2.10;;;18.20;86.00;;;;;;4985606;28;20201;-71
2023/11/17 09:43:21;;;;;;;6.73;2.23;;;18.20;86.20;;;;;;4994292;28;20201;-73
2023/11/17 09:45:51;;;;;;;7.00;2.00;;;18.00;85.70;;;;;;4994090;28;20182;-72
2023/11/17 09:48:21;;;;;;;11.50;2.90;;;18.00;86.20;;;;;;4991708;28;20244;-72
2023/11/17 09:50:52;;;;;;;12.63;2.60;;;18.00;85.90;;;;;;4995312;28;20548;-71
2023/11/17 09:53:23;;;;;;;10.47;2.30;;;18.00;86.30;;;;;;4981871;28;20705;-72
2023/11/17 09:55:53;;;;;;;13.17;2.70;;;18.00;86.20;;;;;;4990661;28;20193;-74
2023/11/17 09:58:20;;;;;;;8.27;2.10;;;18.00;86.20;;;;;;4992542;28;20221;-72
2023/11/17 10:00:48;;;;;;;8.67;2.17;;;18.10;85.80;;;;;;5005482;28;20219;-70
2023/11/17 10:03:19;;;;;;;11.93;2.60;;;18.10;86.10;;;;;;4994929;28;20185;-73
2023/11/17 10:05:48;;;;;;;13.07;2.47;;;18.10;85.30;;;;;;4994364;28;20613;-72
2023/11/17 10:08:17;;;;;;;12.40;2.60;;;18.00;85.00;;;;;;4993819;28;20193;-72
2023/11/17 10:10:46;;;;;;;15.47;2.73;;;18.00;85.10;;;;;;4994823;28;20200;-72
2023/11/17 10:13:16;;;;;;;11.87;2.30;;;18.10;84.60;;;;;;4993883;28;20186;-72
2023/11/17 10:15:46;;;;;;;13.00;3.23;;;18.00;84.60;;;;;;4994635;28;20279;-72
2023/11/17 10:18:29;;;;;;;12.43;3.17;;;18.00;84.30;;;;;;4995089;28;20253;-73
2023/11/17 10:20:59;;;;;;;11.07;2.87;;;18.00;83.90;;;;;;4992263;28;20586;-72
2023/11/17 10:23:28;;;;;;;9.47;2.23;;;18.00;83.90;;;;;;4994873;28;20321;-73
2023/11/17 10:25:56;;;;;;;15.80;2.83;;;18.00;83.90;;;;;;4994609;28;20273;-72
2023/11/17 10:28:24;;;;;;;10.53;2.37;;;18.10;84.10;;;;;;4994294;28;20205;-73
2023/11/17 10:30:54;;;;;;;12.93;2.40;;;18.10;83.30;;;;;;4994532;28;20190;-72
2023/11/17 10:33:44;;;;;;;10.37;2.40;;;18.10;83.00;;;;;;4994173;28;20189;-72
2023/11/17 10:36:15;;;;;;;11.07;2.63;;;18.00;82.40;;;;;;4997694;28;20203;-71
2023/11/17 10:38:45;;;;;;;10.80;2.43;;;18.10;82.80;;;;;;4994152;28;20190;-73
2023/11/17 10:41:17;;;;;;;8.93;2.30;;;18.00;82.40;;;;;;4988051;28;20633;-72
2023/11/17 10:43:52;;;;;;;10.27;2.00;;;18.00;82.20;;;;;;4992237;28;20182;-72
2023/11/17 10:46:22;;;;;;;11.03;2.30;;;17.90;82.10;;;;;;4993077;28;20232;-72
2023/11/17 10:48:53;;;;;;;10.43;2.40;;;17.90;82.00;;;;;;4992332;28;20201;-72
2023/11/17 10:51:21;;;;;;;12.60;2.37;;;17.80;82.10;;;;;;4994088;28;20178;-72
2023/11/17 10:54:09;;;;;;;8.50;1.83;;;17.80;82.10;;;;;;4991641;28;20192;-72
2023/11/17 10:56:37;;;;;;;9.40;2.43;;;17.80;82.10;;;;;;4993755;28;20268;-73
2023/11/17 10:59:08;;;;;;;6.93;1.83;;;17.80;82.20;;;;;;4993016;28;20680;-73
2023/11/17 11:01:40;;;;;;;10.27;2.63;;;17.80;82.00;;;;;;4992217;28;20200;-73
2023/11/17 11:04:15;;;;;;;14.57;2.27;;;17.90;82.00;;;;;;4991977;28;20272;-72
2023/11/17 11:06:43;;;;;;;11.37;2.40;;;18.00;82.00;;;;;;4992056;28;20189;-73
2023/11/17 11:09:17;;;;;;;14.07;2.90;;;18.00;81.80;;;;;;4991902;28;20170;-72
2023/11/17 11:11:53;;;;;;;9.43;2.37;;;18.00;81.70;;;;;;4991295;28;20247;-72
2023/11/17 11:14:21;;;;;;;12.47;2.87;;;18.00;81.90;;;;;;4991924;28;20174;-71
2023/11/17 11:16:49;;;;;;;11.57;2.80;;;18.00;81.90;;;;;;4990541;28;20225;-72
2023/11/17 11:19:17;;;;;;;9.27;2.77;;;18.10;82.40;;;;;;4991019;28;20235;-73
2023/11/17 11:21:49;;;;;;;9.37;2.40;;;18.20;82.00;;;;;;4992267;28;20194;-72
2023/11/17 11:24:18;;;;;;;11.60;2.77;;;18.20;81.50;;;;;;4991300;28;20189;-72
2023/11/17 11:26:49;;;;;;;12.93;3.20;;;18.20;81.00;;;;;;4990616;28;20177;-72
2023/11/17 11:29:20;;;;;;;12.80;3.17;;;18.30;81.20;;;;;;4992543;28;20204;-72
2023/11/17 11:31:49;;;;;;;11.63;2.67;;;18.30;80.70;;;;;;4989447;28;20275;-72
2023/11/17 11:34:16;;;;;;;9.47;2.53;;;18.40;80.10;;;;;;4992297;28;20651;-72
2023/11/17 11:36:47;;;;;;;9.17;2.77;;;18.40;79.60;;;;;;4990599;28;20672;-72
2023/11/17 11:39:18;;;;;;;6.73;2.60;;;18.40;79.40;;;;;;4991598;28;20673;-72
2023/11/17 11:41:46;;;;;;;11.53;2.40;;;18.50;79.10;;;;;;4991495;28;20188;-72
2023/11/17 11:44:14;;;;;;;18.07;3.03;;;18.50;78.50;;;;;;4997993;28;20276;-72
2023/11/17 11:46:41;;;;;;;13.27;3.00;;;18.60;78.50;;;;;;4992939;28;20185;-73
2023/11/17 11:49:14;;;;;;;8.53;2.70;;;18.70;78.00;;;;;;4989834;28;20181;-73
2023/11/17 11:52:01;;;;;;;12.80;2.80;;;18.70;77.60;;;;;;4986358;28;20196;-73
2023/11/17 11:54:28;;;;;;;13.73;2.60;;;18.70;77.30;;;;;;4987798;28;20283;-72
2023/11/17 11:57:02;;;;;;;12.03;2.27;;;18.70;76.80;;;;;;4999157;28;20264;-73
2023/11/17 11:59:33;;;;;;;13.13;2.27;;;18.70;76.40;;;;;;4987733;28;20651;-72
2023/11/17 12:02:02;;;;;;;10.37;2.73;;;18.80;76.00;;;;;;4998805;28;20280;-73
2023/11/17 12:04:32;;;;;;;11.57;2.73;;;18.80;75.60;;;;;;4989524;28;20268;-73
2023/11/17 12:07:00;;;;;;;7.40;2.40;;;18.80;75.00;;;;;;4991290;28;20188;-73
2023/11/17 12:09:30;;;;;;;7.07;2.17;;;18.80;75.50;;;;;;4991189;28;20206;-73
2023/11/17 12:11:58;;;;;;;9.63;2.50;;;18.80;74.80;;;;;;4991402;28;20186;-73
2023/11/17 12:14:34;;;;;;;8.73;2.33;;;18.80;74.30;;;;;;4991656;28;20186;-74
2023/11/17 12:17:01;;;;;;;9.67;1.97;;;18.80;75.00;;;;;;4992107;28;20237;-73
2023/11/17 12:19:31;;;;;;;10.10;2.43;;;18.90;75.20;;;;;;4990993;28;20177;-74
2023/11/17 12:22:03;;;;;;;8.50;2.20;;;18.80;74.90;;;;;;4991399;28;20575;-73
2023/11/17 12:24:33;;;;;;;8.43;2.10;;;18.80;75.70;;;;;;4991669;28;20652;-73
2023/11/17 12:27:02;;;;;;;8.87;2.07;;;18.80;75.60;;;;;;4992136;28;20181;-74
2023/11/17 12:29:31;;;;;;;8.30;1.83;;;18.80;76.30;;;;;;5001683;28;20679;-74
2023/11/17 12:32:03;;;;;;;12.07;2.60;;;18.80;76.40;;;;;;4995655;28;20186;-72
2023/11/17 12:34:30;;;;;;;10.37;2.33;;;18.80;76.40;;;;;;4996041;28;20185;-72
2023/11/17 12:37:02;;;;;;;10.40;2.63;;;18.80;75.50;;;;;;4990629;28;20249;-73
2023/11/17 12:39:37;;;;;;;9.80;2.10;;;18.70;75.30;;;;;;4992963;28;20249;-73
2023/11/17 12:42:16;;;;;;;8.90;2.50;;;18.80;75.00;;;;;;4996584;28;20236;-73
2023/11/17 12:44:44;;;;;;;8.07;2.27;;;18.80;74.60;;;;;;4995853;28;20229;-73
2023/11/17 12:47:12;;;;;;;10.70;2.87;;;18.80;74.40;;;;;;4995945;28;20632;-73
2023/11/17 12:49:56;;;;;;;10.37;2.00;;;18.80;74.40;;;;;;4996028;28;20265;-73
2023/11/17 12:52:24;;;;;;;11.10;2.27;;;18.80;74.30;;;;;;4996864;28;20655;-73
2023/11/17 12:55:08;;;;;;;12.60;2.03;;;18.80;74.50;;;;;;4996487;28;20520;-75